Brick, New Jersey
Current Conditions -  °F | °C
As of 7:15 AM on Friday 19 Dec 2014 (Local Time) from KBLM Reporting Station
Overcast Overcast  
Wind Chill:   Ceiling: 3700
Heat Index:   Visibility: 10mi
Dew Point: -5°   Wind: 5mph
Humidity: 60%   Direction: 280°W
Pressure: 30.01"   Gusts: NA
Location:  40.04°N, 74.12°W
Report Text: KBLM 191215Z AUTO 28004KT 10SM OVC037 02/M05 A3001 RMK AO1
Loading
Personal Weather Stations






























Interactive Weather Map New forecast layout! Learn more

10-Day Weather Forecast

Advertisements
Track Severe Weather on mobile